Time,TemperatureF,DewpointF,PressureIn,WindDirection,WindDirectionDegrees,WindSpeedMPH,WindSpeedGustMPH,Humidity,HourlyPrecipIn,Conditions,Clouds,dailyrainin,SoftwareType,DateUTC
2013-07-19 00:12:00,54.0,-99.9,30.11,West,275,21.0,25.0,-999,-99.99,,,-99.99,,2013-07-19 08:12:00,
2013-07-19 00:22:00,54.0,-99.9,30.11,West,274,21.0,23.0,-999,-99.99,,,-99.99,,2013-07-19 08:22:00,
2013-07-19 00:43:00,54.0,-99.9,30.12,WNW,283,21.0,25.0,-999,-99.99,,,-99.99,,2013-07-19 08:43:00,
2013-07-19 00:52:00,54.0,-99.9,30.12,WNW,286,20.0,22.0,-999,-99.99,,,-99.99,,2013-07-19 08:52:00,
2013-07-19 01:02:00,54.0,-99.9,30.12,WNW,286,20.0,22.0,-999,-99.99,,,-99.99,,2013-07-19 09:02:00,
2013-07-19 01:22:00,54.0,-99.9,30.13,WNW,292,17.0,18.0,-999,-99.99,,,-99.99,,2013-07-19 09:22:00,
2013-07-19 01:43:00,54.0,-99.9,30.13,WNW,290,15.0,17.0,-999,-99.99,,,-99.99,,2013-07-19 09:43:00,
2013-07-19 01:52:00,54.0,-99.9,30.13,WNW,288,16.0,18.0,-999,-99.99,,,-99.99,,2013-07-19 09:52:00,
2013-07-19 02:01:00,54.0,-99.9,30.13,WNW,291,14.0,16.0,-999,-99.99,,,-99.99,,2013-07-19 10:01:00,
2013-07-19 02:22:00,54.0,-99.9,30.14,WNW,287,17.0,18.0,-999,-99.99,,,-99.99,,2013-07-19 10:22:00,
2013-07-19 02:43:00,54.0,-99.9,30.14,WNW,290,15.0,17.0,-999,-99.99,,,-99.99,,2013-07-19 10:43:00,
2013-07-19 02:52:00,54.0,-99.9,30.14,WNW,288,15.0,17.0,-999,-99.99,,,-99.99,,2013-07-19 10:52:00,
2013-07-19 03:33:00,54.0,-99.9,30.15,WNW,289,14.0,15.0,-999,-99.99,,,-99.99,,2013-07-19 11:33:00,
2013-07-19 03:43:00,54.0,-99.9,30.15,WNW,284,13.0,15.0,-999,-99.99,,,-99.99,,2013-07-19 11:43:00,
2013-07-19 04:02:00,54.0,-99.9,30.15,West,279,14.0,15.0,-999,-99.99,,,-99.99,,2013-07-19 12:02:00,
2013-07-19 04:12:00,53.0,-99.9,30.15,WNW,290,13.0,16.0,-999,-99.99,,,-99.99,,2013-07-19 12:12:00,
2013-07-19 04:44:00,53.0,-99.9,30.15,WNW,284,17.0,18.0,-999,-99.99,,,-99.99,,2013-07-19 12:44:00,
2013-07-19 05:02:00,53.0,-99.9,30.15,WNW,286,14.0,16.0,-999,-99.99,,,-99.99,,2013-07-19 13:02:00,
2013-07-19 06:02:00,52.0,-99.9,30.16,West,265,15.0,17.0,-999,-99.99,,,-99.99,,2013-07-19 14:02:00,
2013-07-19 06:12:00,52.0,-99.9,30.16,West,260,15.0,16.0,-999,-99.99,,,-99.99,,2013-07-19 14:12:00,
2013-07-19 06:23:00,52.0,-99.9,30.16,West,259,15.0,17.0,-999,-99.99,,,-99.99,,2013-07-19 14:23:00,
2013-07-19 06:43:00,51.0,-99.9,30.17,WSW,254,13.0,17.0,-999,-99.99,,,-99.99,,2013-07-19 14:43:00,
2013-07-19 07:02:00,51.0,-99.9,30.17,WSW,258,15.0,17.0,-999,-99.99,,,-99.99,,2013-07-19 15:02:00,
2013-07-19 07:11:00,51.0,-99.9,30.17,West,266,13.0,15.0,-999,-99.99,,,-99.99,,2013-07-19 15:11:00,
2013-07-19 07:43:00,51.0,-99.9,30.18,WSW,251,13.0,15.0,-999,-99.99,,,-99.99,,2013-07-19 15:43:00,
2013-07-19 08:01:00,50.0,-99.9,30.18,WSW,254,12.0,15.0,-999,-99.99,,,-99.99,,2013-07-19 16:01:00,
2013-07-19 08:32:00,50.0,-99.9,30.19,WSW,248,14.0,15.0,-999,-99.99,,,-99.99,,2013-07-19 16:32:00,
2013-07-19 08:43:00,50.0,-99.9,30.19,WSW,247,14.0,17.0,-999,-99.99,,,-99.99,,2013-07-19 16:43:00,
2013-07-19 08:53:00,50.0,-99.9,30.19,WSW,248,12.0,16.0,-999,-99.99,,,-99.99,,2013-07-19 16:53:00,
2013-07-19 10:01:00,49.0,-99.9,30.19,SW,236,12.0,14.0,-999,-99.99,,,-99.99,,2013-07-19 18:01:00,
2013-07-19 11:01:00,49.0,-99.9,30.20,SW,229,11.0,13.0,-999,-99.99,,,-99.99,,2013-07-19 19:01:00,
2013-07-19 11:11:00,49.0,-99.9,30.21,SW,230,11.0,13.0,-999,-99.99,,,-99.99,,2013-07-19 19:11:00,
2013-07-19 11:22:00,49.0,-99.9,30.21,SW,233,11.0,13.0,-999,-99.99,,,-99.99,,2013-07-19 19:22:00,
2013-07-19 11:43:00,48.0,-99.9,30.21,SW,225,10.0,12.0,-999,-99.99,,,-99.99,,2013-07-19 19:43:00,
2013-07-19 12:02:00,48.0,-99.9,30.21,SW,236,11.0,14.0,-999,-99.99,,,-99.99,,2013-07-19 20:02:00,
2013-07-19 12:23:00,48.0,-99.9,30.21,SW,228,10.0,12.0,-999,-99.99,,,-99.99,,2013-07-19 20:23:00,
2013-07-19 12:43:00,49.0,-99.9,30.21,SW,234,9.0,12.0,-999,-99.99,,,-99.99,,2013-07-19 20:43:00,
2013-07-19 13:01:00,48.0,-99.9,30.21,SW,225,8.0,11.0,-999,-99.99,,,-99.99,,2013-07-19 21:01:00,
2013-07-19 13:43:00,48.0,-99.9,30.21,SW,230,9.0,12.0,-999,-99.99,,,-99.99,,2013-07-19 21:43:00,
2013-07-19 14:01:00,48.0,-99.9,30.21,SW,221,8.0,12.0,-999,-99.99,,,-99.99,,2013-07-19 22:01:00,
2013-07-19 14:52:00,48.0,-99.9,30.21,SW,221,8.0,12.0,-999,-99.99,,,-99.99,,2013-07-19 22:52:00,
2013-07-19 15:11:00,48.0,-99.9,30.21,SW,234,9.0,11.0,-999,-99.99,,,-99.99,,2013-07-19 23:11:00,
2013-07-19 15:22:00,49.0,-99.9,30.21,SW,231,7.0,11.0,-999,-99.99,,,-99.99,,2013-07-19 23:22:00,
2013-07-19 15:43:00,49.0,-99.9,30.21,SW,235,7.0,8.0,-999,-99.99,,,-99.99,,2013-07-19 23:43:00,
2013-07-19 16:01:00,49.0,-99.9,30.21,SW,227,7.0,10.0,-999,-99.99,,,-99.99,,2013-07-20 00:01:00,
2013-07-19 16:22:00,49.0,-99.9,30.21,SW,227,7.0,9.0,-999,-99.99,,,-99.99,,2013-07-20 00:22:00,
2013-07-19 16:43:00,49.0,-99.9,30.21,SW,229,8.0,11.0,-999,-99.99,,,-99.99,,2013-07-20 00:43:00,
2013-07-19 17:22:00,49.0,-99.9,30.21,WSW,244,7.0,9.0,-999,-99.99,,,-99.99,,2013-07-20 01:22:00,
2013-07-19 18:02:00,49.0,-99.9,30.20,WSW,246,8.0,10.0,-999,-99.99,,,-99.99,,2013-07-20 02:02:00,
2013-07-19 18:22:00,49.0,-99.9,30.20,WSW,252,7.0,9.0,-999,-99.99,,,-99.99,,2013-07-20 02:22:00,
2013-07-19 19:02:00,49.0,-99.9,30.20,WSW,241,7.0,9.0,-999,-99.99,,,-99.99,,2013-07-20 03:02:00,
2013-07-19 19:12:00,49.0,-99.9,30.20,SW,234,7.0,9.0,-999,-99.99,,,-99.99,,2013-07-20 03:12:00,
2013-07-19 19:44:00,50.0,-99.9,30.20,WSW,246,7.0,9.0,-999,-99.99,,,-99.99,,2013-07-20 03:44:00,
2013-07-19 19:53:00,50.0,-99.9,30.19,WSW,240,8.0,9.0,-999,-99.99,,,-99.99,,2013-07-20 03:53:00,
2013-07-19 20:02:00,49.0,-99.9,30.20,WSW,245,8.0,10.0,-999,-99.99,,,-99.99,,2013-07-20 04:02:00,
2013-07-19 20:33:00,50.0,-99.9,30.20,WSW,248,7.0,9.0,-999,-99.99,,,-99.99,,2013-07-20 04:33:00,
2013-07-19 20:44:00,49.0,-99.9,30.20,WSW,252,8.0,10.0,-999,-99.99,,,-99.99,,2013-07-20 04:44:00,
2013-07-19 21:02:00,49.0,-99.9,30.20,West,259,9.0,10.0,-999,-99.99,,,-99.99,,2013-07-20 05:02:00,
2013-07-19 21:32:00,49.0,-99.9,30.20,WSW,255,10.0,12.0,-999,-99.99,,,-99.99,,2013-07-20 05:32:00,
2013-07-19 22:01:00,49.0,-99.9,30.20,West,266,11.0,12.0,-999,-99.99,,,-99.99,,2013-07-20 06:01:00,
2013-07-19 22:22:00,49.0,-99.9,30.20,West,269,11.0,12.0,-999,-99.99,,,-99.99,,2013-07-20 06:22:00,
2013-07-19 22:43:00,50.0,-99.9,30.20,West,275,10.0,11.0,-999,-99.99,,,-99.99,,2013-07-20 06:43:00,
2013-07-19 22:52:00,50.0,-99.9,30.20,West,275,10.0,11.0,-999,-99.99,,,-99.99,,2013-07-20 06:52:00,
2013-07-19 23:33:00,50.0,-99.9,30.21,West,272,9.0,11.0,-999,-99.99,,,-99.99,,2013-07-20 07:33:00,
2013-07-19 23:44:00,50.0,-99.9,30.21,West,280,9.0,12.0,-999,-99.99,,,-99.99,,2013-07-20 07:44:00,
2013-07-19 23:54:00,50.0,-99.9,30.21,West,266,10.0,12.0,-999,-99.99,,,-99.99,,2013-07-20 07:54:00,